createdAt,value
2023-01-11T00:00:17.627Z,3.71
2023-01-11T00:02:47.041Z,3.71
2023-01-11T00:05:16.348Z,3.68
2023-01-11T00:07:45.128Z,3.65
2023-01-11T00:10:13.795Z,3.64
2023-01-11T00:12:42.390Z,3.62
2023-01-11T00:15:13.282Z,3.60
2023-01-11T00:17:42.547Z,3.62
2023-01-11T00:20:11.972Z,3.64
2023-01-11T00:22:40.829Z,3.63
2023-01-11T00:25:13.647Z,3.62
2023-01-11T00:27:42.358Z,3.62
2023-01-11T00:30:13.526Z,3.62
2023-01-11T00:32:42.194Z,3.62
2023-01-11T00:35:14.362Z,3.61
2023-01-11T00:37:43.131Z,3.63
2023-01-11T00:40:12.462Z,3.69
2023-01-11T00:42:58.815Z,3.73
2023-01-11T00:45:46.694Z,3.75
2023-01-11T00:48:16.471Z,3.77
2023-01-11T00:50:45.368Z,3.81
2023-01-11T00:53:14.584Z,3.82
2023-01-11T00:55:43.520Z,3.82
2023-01-11T00:58:12.591Z,3.81
2023-01-11T01:00:43.551Z,3.80
2023-01-11T01:03:12.550Z,3.79
2023-01-11T01:05:40.986Z,3.79
2023-01-11T01:08:12.028Z,3.80
2023-01-11T01:10:40.553Z,3.79
2023-01-11T01:13:29.599Z,3.80
2023-01-11T01:16:00.158Z,3.79
2023-01-11T01:18:28.788Z,3.76
2023-01-11T01:20:57.190Z,3.73
2023-01-11T01:23:25.741Z,3.69
2023-01-11T01:25:54.246Z,3.67
2023-01-11T01:28:23.251Z,3.65
2023-01-11T01:30:52.928Z,3.61
2023-01-11T01:33:23.030Z,3.60
2023-01-11T01:35:52.258Z,3.53
2023-01-11T01:38:20.712Z,3.59
2023-01-11T01:40:52.640Z,3.55
2023-01-11T01:43:21.450Z,3.52
2023-01-11T01:45:53.006Z,3.47
2023-01-11T01:48:28.097Z,3.43
2023-01-11T01:51:01.150Z,3.37
2023-01-11T01:53:35.866Z,3.29
2023-01-11T01:56:09.848Z,3.27
2023-01-11T01:58:46.760Z,3.28
2023-01-11T02:01:36.694Z,3.25
2023-01-11T02:04:14.370Z,3.22
2023-01-11T02:06:43.578Z,3.20
2023-01-11T02:09:23.531Z,3.18
2023-01-11T02:11:54.602Z,3.17
2023-01-11T02:14:29.345Z,3.13
2023-01-11T02:16:58.128Z,3.05
2023-01-11T02:19:43.461Z,3.00
2023-01-11T02:22:46.701Z,2.94
2023-01-11T02:25:34.694Z,2.86
2023-01-11T02:28:10.411Z,2.83
2023-01-11T02:30:48.386Z,2.82
2023-01-11T02:33:24.592Z,2.85
2023-01-11T02:36:06.054Z,2.90
2023-01-11T02:38:41.788Z,2.87
2023-01-11T02:41:20.567Z,2.86
2023-01-11T02:44:17.773Z,2.86
2023-01-11T02:46:50.892Z,2.84
2023-01-11T02:49:29.512Z,2.85
2023-01-11T02:52:05.800Z,2.88
2023-01-11T02:54:35.503Z,2.86
2023-01-11T02:57:05.562Z,2.89
2023-01-11T02:59:37.679Z,2.90
2023-01-11T03:02:07.133Z,2.94
2023-01-11T03:04:36.958Z,2.96
2023-01-11T03:07:20.954Z,2.98
2023-01-11T03:10:02.513Z,2.99
2023-01-11T03:12:52.304Z,2.97
2023-01-11T03:15:35.692Z,2.93
2023-01-11T03:18:16.491Z,2.93
2023-01-11T03:20:51.765Z,2.93
2023-01-11T03:23:26.013Z,2.90
2023-01-11T03:26:01.600Z,2.94
2023-01-11T03:28:39.298Z,2.91
2023-01-11T03:31:18.369Z,2.94
2023-01-11T03:33:55.802Z,2.91
2023-01-11T03:36:28.879Z,2.91
2023-01-11T03:39:02.277Z,2.90
2023-01-11T03:41:35.836Z,2.91
2023-01-11T03:44:10.206Z,2.91
2023-01-11T03:46:45.883Z,2.91
2023-01-11T03:49:17.682Z,2.91
2023-01-11T03:51:49.470Z,2.89
2023-01-11T03:54:25.785Z,2.90
2023-01-11T03:57:01.613Z,2.91
2023-01-11T03:59:30.225Z,2.96
2023-01-11T04:02:01.202Z,3.02
2023-01-11T04:04:30.699Z,3.09
2023-01-11T04:06:59.610Z,3.08
2023-01-11T04:09:29.383Z,3.07
2023-01-11T04:11:58.495Z,3.05
2023-01-11T04:14:27.346Z,3.03
2023-01-11T04:16:56.064Z,3.00
2023-01-11T04:19:26.311Z,2.99
2023-01-11T04:21:54.779Z,2.99
2023-01-11T04:24:23.312Z,2.98
2023-01-11T04:26:52.410Z,3.00
2023-01-11T04:29:20.969Z,2.95
2023-01-11T04:31:49.585Z,2.91
2023-01-11T04:34:18.283Z,2.88
2023-01-11T04:36:48.121Z,2.84
2023-01-11T04:39:17.807Z,2.82
2023-01-11T04:42:04.452Z,2.84
2023-01-11T04:44:33.431Z,2.87
2023-01-11T04:47:02.057Z,2.87
2023-01-11T04:49:31.168Z,2.87
2023-01-11T04:52:01.113Z,2.87
2023-01-11T04:54:29.680Z,2.84
2023-01-11T04:56:59.385Z,2.84
2023-01-11T04:59:28.111Z,2.83
2023-01-11T05:01:57.192Z,2.82
2023-01-11T05:04:26.295Z,2.82
2023-01-11T05:06:55.117Z,2.80
2023-01-11T05:09:25.675Z,2.79
2023-01-11T05:11:54.697Z,2.76
2023-01-11T05:14:23.836Z,2.73
2023-01-11T05:16:52.467Z,2.72
2023-01-11T05:19:21.761Z,2.73
2023-01-11T05:21:50.489Z,2.75
2023-01-11T05:24:19.764Z,2.73
2023-01-11T05:26:50.662Z,2.72
2023-01-11T05:29:20.590Z,2.72
2023-01-11T05:31:50.170Z,2.75
2023-01-11T05:34:19.262Z,2.78
2023-01-11T05:36:47.943Z,2.81
2023-01-11T05:39:16.782Z,2.81
2023-01-11T05:41:46.125Z,2.84
2023-01-11T05:44:33.649Z,2.86
2023-01-11T05:47:02.593Z,2.83
2023-01-11T05:49:31.553Z,2.83
2023-01-11T05:52:00.178Z,2.87
2023-01-11T05:54:29.010Z,2.93
2023-01-11T05:56:58.653Z,2.90
2023-01-11T05:59:31.953Z,2.98
2023-01-11T06:02:01.276Z,3.01
2023-01-11T06:04:30.690Z,3.06
2023-01-11T06:06:59.808Z,3.10
2023-01-11T06:09:28.560Z,3.12
2023-01-11T06:11:57.459Z,3.11
2023-01-11T06:14:26.746Z,3.12
2023-01-11T06:16:57.053Z,3.15
2023-01-11T06:19:30.174Z,3.16
2023-01-11T06:21:59.805Z,3.10
2023-01-11T06:24:32.763Z,3.03
2023-01-11T06:27:01.378Z,3.00
2023-01-11T06:29:30.244Z,2.98
2023-01-11T06:32:03.243Z,2.94
2023-01-11T06:34:31.907Z,2.88
2023-01-11T06:37:00.510Z,2.84
2023-01-11T06:39:29.258Z,2.76
2023-01-11T06:41:57.924Z,2.67
2023-01-11T06:44:26.825Z,2.61
2023-01-11T06:47:00.386Z,2.54
2023-01-11T06:49:29.060Z,2.43
2023-01-11T06:51:57.592Z,2.38
2023-01-11T06:54:26.741Z,2.30
2023-01-11T06:56:55.957Z,2.23
2023-01-11T06:59:24.950Z,2.16
2023-01-11T07:01:54.042Z,2.12
2023-01-11T07:04:24.969Z,2.08
2023-01-11T07:06:55.924Z,2.04
2023-01-11T07:09:25.054Z,2.04
2023-01-11T07:11:54.490Z,2.04
2023-01-11T07:14:25.240Z,2.03
2023-01-11T07:16:54.782Z,2.04
2023-01-11T07:19:24.890Z,2.07
2023-01-11T07:21:53.962Z,2.09
2023-01-11T07:24:24.558Z,2.13
2023-01-11T07:26:55.114Z,2.19
2023-01-11T07:29:23.686Z,2.31
2023-01-11T07:31:52.657Z,2.44
2023-01-11T07:34:21.666Z,2.55
2023-01-11T07:36:52.339Z,2.61
2023-01-11T07:39:26.824Z,2.64
2023-01-11T07:42:17.814Z,2.63
2023-01-11T07:44:46.591Z,2.69
2023-01-11T07:47:15.607Z,2.70
2023-01-11T07:49:44.516Z,2.71
2023-01-11T07:52:14.652Z,2.69
2023-01-11T07:54:43.562Z,2.74
2023-01-11T07:57:12.037Z,2.78
2023-01-11T07:59:41.030Z,2.79
2023-01-11T08:02:12.271Z,2.84
2023-01-11T08:04:41.690Z,2.89
2023-01-11T08:07:10.719Z,2.99
2023-01-11T08:09:41.257Z,3.01
2023-01-11T08:12:27.624Z,3.04
2023-01-11T08:14:56.391Z,3.04
2023-01-11T08:17:25.167Z,3.06
2023-01-11T08:19:56.009Z,3.10
2023-01-11T08:22:25.197Z,3.17
2023-01-11T08:24:55.590Z,3.19
2023-01-11T08:27:25.654Z,3.17
2023-01-11T08:29:54.635Z,3.15
2023-01-11T08:32:23.489Z,3.19
2023-01-11T08:34:52.304Z,3.19
2023-01-11T08:37:21.182Z,3.24
2023-01-11T08:39:49.965Z,3.25
2023-01-11T08:42:20.275Z,3.18
2023-01-11T08:44:49.169Z,3.17
2023-01-11T08:47:18.035Z,3.24
2023-01-11T08:49:46.707Z,3.30
2023-01-11T08:52:15.607Z,3.32
2023-01-11T08:54:44.506Z,3.30
2023-01-11T08:57:15.812Z,3.36
2023-01-11T08:59:46.390Z,3.39
2023-01-11T09:02:15.469Z,3.42
2023-01-11T09:04:46.680Z,3.36
2023-01-11T09:07:15.622Z,3.41
2023-01-11T09:09:44.318Z,3.52
2023-01-11T09:12:14.342Z,3.63
2023-01-11T09:14:43.882Z,3.73
2023-01-11T09:17:14.188Z,3.75
2023-01-11T09:19:43.007Z,3.79
2023-01-11T09:22:11.940Z,3.85
2023-01-11T09:24:40.757Z,3.81
2023-01-11T09:27:12.047Z,3.85
2023-01-11T09:29:41.368Z,3.84
2023-01-11T09:32:14.492Z,3.92
2023-01-11T09:34:45.340Z,3.99
2023-01-11T09:37:15.787Z,3.98
2023-01-11T09:39:45.676Z,3.94
2023-01-11T09:42:35.668Z,3.94
2023-01-11T09:45:14.636Z,3.95
2023-01-11T09:47:50.276Z,3.92
2023-01-11T09:50:23.921Z,3.91
2023-01-11T09:52:54.803Z,3.82
2023-01-11T09:55:33.896Z,3.84
2023-01-11T09:58:22.162Z,3.85
2023-01-11T10:00:56.108Z,3.87
2023-01-11T10:04:26.103Z,3.95
2023-01-11T10:07:13.574Z,3.99
2023-01-11T10:18:31.356Z,4.07
2023-01-11T10:21:58.334Z,4.24
2023-01-11T10:24:30.336Z,4.22
2023-01-11T10:27:02.288Z,4.20
2023-01-11T10:29:57.880Z,4.28
2023-01-11T10:32:45.931Z,4.31
2023-01-11T10:35:41.484Z,4.25
2023-01-11T10:38:41.323Z,4.23
2023-01-11T10:41:22.348Z,4.23
2023-01-11T10:44:02.859Z,4.22
2023-01-11T10:46:33.537Z,4.25
2023-01-11T10:49:14.626Z,4.28
2023-01-11T10:51:49.316Z,4.24
2023-01-11T10:54:22.257Z,4.25
2023-01-11T10:57:09.141Z,4.25
2023-01-11T10:59:55.549Z,4.23
2023-01-11T11:02:40.295Z,4.20
2023-01-11T11:05:24.922Z,4.23
2023-01-11T11:07:59.985Z,4.25
2023-01-11T11:10:37.745Z,4.25
2023-01-11T11:13:15.146Z,4.32
2023-01-11T11:15:54.117Z,4.33
2023-01-11T11:18:23.939Z,4.41
2023-01-11T11:20:52.947Z,4.49
2023-01-11T11:23:26.284Z,4.44
2023-01-11T11:25:59.175Z,4.45
2023-01-11T11:28:30.680Z,4.49
2023-01-11T11:31:01.775Z,4.49
2023-01-11T11:33:35.412Z,4.56
2023-01-11T11:36:08.146Z,4.53
2023-01-11T11:38:40.650Z,4.56
2023-01-11T11:41:12.521Z,4.67
2023-01-11T11:43:41.949Z,4.72
2023-01-11T11:46:25.221Z,4.91
2023-01-11T11:49:21.209Z,4.96
2023-01-11T11:51:50.613Z,4.96
2023-01-11T11:54:30.937Z,4.96
2023-01-11T11:57:13.345Z,4.90
2023-01-11T11:59:47.413Z,4.86
2023-01-11T12:02:29.842Z,4.81
2023-01-11T12:05:00.437Z,4.81
2023-01-11T12:07:36.099Z,4.76
2023-01-11T12:10:14.674Z,4.76
2023-01-11T12:12:55.641Z,4.80
2023-01-11T12:15:30.367Z,4.84
2023-01-11T12:18:24.553Z,4.82
2023-01-11T12:20:53.607Z,4.85
2023-01-11T12:23:24.494Z,4.83
2023-01-11T12:26:18.240Z,4.87
2023-01-11T12:29:04.124Z,4.86
2023-01-11T12:31:43.843Z,4.85
2023-01-11T12:34:35.466Z,4.82
2023-01-11T12:37:14.490Z,4.79
2023-01-11T12:39:53.122Z,4.82
2023-01-11T12:42:40.239Z,4.85
2023-01-11T12:45:21.683Z,4.71
2023-01-11T12:48:25.489Z,4.70
2023-01-11T12:51:08.845Z,4.69
2023-01-11T12:53:54.053Z,4.68
2023-01-11T12:56:48.405Z,4.79
2023-01-11T12:59:41.264Z,4.83
2023-01-11T13:02:30.652Z,4.83
2023-01-11T13:05:10.210Z,4.85
2023-01-11T13:07:49.908Z,4.88
2023-01-11T13:10:30.444Z,4.88
2023-01-11T13:13:07.322Z,4.87
2023-01-11T13:15:49.113Z,4.91
2023-01-11T13:18:24.552Z,4.92
2023-01-11T13:21:01.707Z,4.87
2023-01-11T13:23:39.305Z,4.89
2023-01-11T13:26:25.085Z,4.87
2023-01-11T13:29:01.820Z,4.89
2023-01-11T13:31:38.938Z,4.85
2023-01-11T13:34:18.599Z,4.82
2023-01-11T13:36:53.150Z,4.79
2023-01-11T13:39:28.781Z,4.80
2023-01-11T13:42:03.566Z,4.77
2023-01-11T13:44:37.255Z,4.74
2023-01-11T13:47:12.388Z,4.70
2023-01-11T13:49:50.768Z,4.66
2023-01-11T13:52:22.131Z,4.64
2023-01-11T13:54:59.800Z,4.63
2023-01-11T13:57:35.883Z,4.64
2023-01-11T14:00:12.651Z,4.65
2023-01-11T14:02:48.593Z,4.67
2023-01-11T14:05:21.564Z,4.68
2023-01-11T14:08:02.387Z,4.64
2023-01-11T14:10:40.967Z,4.59
2023-01-11T14:13:54.024Z,4.58
2023-01-11T14:16:33.042Z,4.54
2023-01-11T14:19:16.344Z,4.51
2023-01-11T14:22:07.499Z,4.50
2023-01-11T14:24:42.416Z,4.51
2023-01-11T14:27:33.357Z,4.49
2023-01-11T14:30:23.234Z,4.45
2023-01-11T14:33:24.724Z,4.44
2023-01-11T14:36:11.084Z,4.40
2023-01-11T14:39:06.791Z,4.41
2023-01-11T14:42:12.147Z,4.41
2023-01-11T14:45:23.418Z,4.41
2023-01-11T14:48:06.476Z,4.41
2023-01-11T14:50:46.795Z,4.42
2023-01-11T14:53:21.700Z,4.43
2023-01-11T14:55:52.860Z,4.45
2023-01-11T14:58:27.255Z,4.46
2023-01-11T15:01:12.027Z,4.45
2023-01-11T15:03:52.019Z,4.43
2023-01-11T15:06:22.966Z,4.42
2023-01-11T15:08:56.126Z,4.40
2023-01-11T15:11:32.245Z,4.39
2023-01-11T15:14:04.937Z,4.38
2023-01-11T15:16:53.110Z,4.39
2023-01-11T15:19:28.867Z,4.44
2023-01-11T15:21:59.987Z,4.47
2023-01-11T15:24:34.298Z,4.47
2023-01-11T15:27:04.055Z,4.47
2023-01-11T15:29:34.343Z,4.46
2023-01-11T15:32:15.597Z,4.47
2023-01-11T15:34:46.376Z,4.47
2023-01-11T15:37:29.827Z,4.47
2023-01-11T15:40:05.311Z,4.48
2023-01-11T15:42:58.301Z,4.45
2023-01-11T15:46:32.657Z,4.45
2023-01-11T15:49:50.997Z,4.44
2023-01-11T15:53:04.513Z,4.44
2023-01-11T15:56:16.767Z,4.47
2023-01-11T15:59:30.817Z,4.46
2023-01-11T16:02:35.994Z,4.48
2023-01-11T16:05:17.274Z,4.50
2023-01-11T16:07:58.054Z,4.50
2023-01-11T16:10:48.605Z,4.51
2023-01-11T16:13:35.338Z,4.51
2023-01-11T16:16:18.067Z,4.54
2023-01-11T16:18:52.330Z,4.53
2023-01-11T16:21:33.867Z,4.52
2023-01-11T16:24:05.855Z,4.54
2023-01-11T16:26:35.946Z,4.52
2023-01-11T16:29:12.646Z,4.51
2023-01-11T16:32:01.870Z,4.52
2023-01-11T16:34:32.336Z,4.56
2023-01-11T16:37:02.395Z,4.56
2023-01-11T16:39:34.758Z,4.56
2023-01-11T16:42:06.350Z,4.57
2023-01-11T16:44:49.078Z,4.57
2023-01-11T16:47:18.707Z,4.59
2023-01-11T16:49:50.290Z,4.58
2023-01-11T16:52:40.703Z,4.58
2023-01-11T16:55:29.797Z,4.56
2023-01-11T16:58:01.506Z,4.57
2023-01-11T17:00:38.918Z,4.54
2023-01-11T17:03:25.912Z,4.52
2023-01-11T17:06:04.457Z,4.52
2023-01-11T17:08:35.931Z,4.49
2023-01-11T17:11:17.962Z,4.49
2023-01-11T17:13:58.247Z,4.47
2023-01-11T17:16:31.611Z,4.45
2023-01-11T17:19:08.203Z,4.48
2023-01-11T17:21:41.651Z,4.47
2023-01-11T17:24:26.465Z,4.49
2023-01-11T17:27:03.475Z,4.51
2023-01-11T17:29:39.620Z,4.51
2023-01-11T17:32:18.599Z,4.51
2023-01-11T17:34:50.489Z,4.50
2023-01-11T17:37:20.823Z,4.51
2023-01-11T17:39:53.939Z,4.52
2023-01-11T17:42:40.915Z,4.54
2023-01-11T17:45:26.164Z,4.55
2023-01-11T17:47:57.811Z,4.55
2023-01-11T17:50:30.293Z,4.56
2023-01-11T17:53:08.438Z,4.56
2023-01-11T17:55:53.882Z,4.54
2023-01-11T17:58:27.719Z,4.54
2023-01-11T18:01:28.887Z,4.52
2023-01-11T18:04:01.490Z,4.52
2023-01-11T18:06:36.290Z,4.50
2023-01-11T18:09:11.964Z,4.48
2023-01-11T18:11:46.896Z,4.44
2023-01-11T18:14:24.631Z,4.38
2023-01-11T18:17:02.145Z,4.31
2023-01-11T18:19:44.540Z,4.24
2023-01-11T18:22:33.027Z,4.19
2023-01-11T18:25:22.681Z,4.17
2023-01-11T18:28:26.012Z,4.17
2023-01-11T18:31:02.803Z,4.16
2023-01-11T18:33:35.472Z,4.15
2023-01-11T18:36:28.597Z,4.13
2023-01-11T18:38:57.421Z,4.14
2023-01-11T18:41:47.062Z,4.19
2023-01-11T18:44:23.920Z,4.22
2023-01-11T18:46:53.140Z,4.25
2023-01-11T18:49:21.587Z,4.26
2023-01-11T18:51:52.029Z,4.31
2023-01-11T18:54:22.444Z,4.31
2023-01-11T18:56:51.272Z,4.31
2023-01-11T18:59:20.054Z,4.31
2023-01-11T19:02:01.693Z,4.31
2023-01-11T19:04:41.657Z,4.28
2023-01-11T19:07:16.512Z,4.24
2023-01-11T19:09:46.379Z,4.18
2023-01-11T19:12:16.786Z,4.14
2023-01-11T19:14:47.912Z,4.09
2023-01-11T19:17:20.505Z,4.04
2023-01-11T19:19:49.459Z,4.00
2023-01-11T19:22:23.338Z,3.99
2023-01-11T19:24:58.168Z,3.96
2023-01-11T19:27:28.373Z,3.92
2023-01-11T19:30:04.179Z,3.86
2023-01-11T19:32:33.518Z,3.79
2023-01-11T19:35:05.471Z,3.76
2023-01-11T19:37:39.964Z,3.72
2023-01-11T19:40:10.987Z,3.67
2023-01-11T19:42:42.889Z,3.63
2023-01-11T19:45:12.164Z,3.60
2023-01-11T19:47:50.434Z,3.58
2023-01-11T19:50:23.145Z,3.58
2023-01-11T19:52:56.247Z,3.54
2023-01-11T19:55:38.417Z,3.56
2023-01-11T19:58:08.521Z,3.62
2023-01-11T20:00:37.783Z,3.68
2023-01-11T20:03:07.449Z,3.73
2023-01-11T20:05:38.510Z,3.74
2023-01-11T20:08:13.507Z,3.73
2023-01-11T20:10:43.039Z,3.73
2023-01-11T20:13:14.441Z,3.72
2023-01-11T20:15:43.586Z,3.70
2023-01-11T20:18:15.162Z,3.70
2023-01-11T20:20:48.278Z,3.66
2023-01-11T20:23:21.842Z,3.63
2023-01-11T20:25:53.110Z,3.59
2023-01-11T20:28:32.290Z,3.64
2023-01-11T20:31:02.544Z,3.65
2023-01-11T20:33:34.535Z,3.63
2023-01-11T20:36:10.882Z,3.63
2023-01-11T20:38:43.236Z,3.63
2023-01-11T20:41:43.869Z,3.65
2023-01-11T20:44:19.867Z,3.65
2023-01-11T20:46:51.916Z,3.66
2023-01-11T20:49:21.093Z,3.62
2023-01-11T20:51:50.072Z,3.62
2023-01-11T20:54:22.504Z,3.63
2023-01-11T20:56:53.029Z,3.62
2023-01-11T20:59:25.829Z,3.62
2023-01-11T21:01:57.748Z,3.62
2023-01-11T21:04:27.974Z,3.61
2023-01-11T21:06:58.168Z,3.57
2023-01-11T21:09:29.515Z,3.55
2023-01-11T21:11:58.850Z,3.57
2023-01-11T21:14:27.908Z,3.56
2023-01-11T21:16:57.059Z,3.58
2023-01-11T21:19:26.894Z,3.59
2023-01-11T21:21:58.783Z,3.60
2023-01-11T21:24:29.803Z,3.60
2023-01-11T21:26:58.922Z,3.55
2023-01-11T21:29:27.706Z,3.55
2023-01-11T21:31:56.782Z,3.55
2023-01-11T21:34:28.034Z,3.53
2023-01-11T21:36:57.133Z,3.49
2023-01-11T21:39:27.015Z,3.46
2023-01-11T21:42:00.339Z,3.45
2023-01-11T21:44:33.744Z,3.44
2023-01-11T21:47:03.807Z,3.40
2023-01-11T21:49:33.469Z,3.36
2023-01-11T21:52:10.157Z,3.36
2023-01-11T21:54:42.135Z,3.38
2023-01-11T21:57:12.962Z,3.35
2023-01-11T21:59:41.760Z,3.33
2023-01-11T22:02:11.349Z,3.37
2023-01-11T22:04:40.564Z,3.38
2023-01-11T22:07:09.783Z,3.41
2023-01-11T22:09:44.795Z,3.45
2023-01-11T22:12:26.846Z,3.45
2023-01-11T22:14:56.443Z,3.51
2023-01-11T22:17:28.004Z,3.59
2023-01-11T22:19:57.050Z,3.63
2023-01-11T22:22:26.001Z,3.64
2023-01-11T22:24:55.383Z,3.73
2023-01-11T22:27:26.436Z,3.80
2023-01-11T22:29:58.278Z,3.84
2023-01-11T22:32:33.802Z,3.90
2023-01-11T22:35:03.782Z,3.95
2023-01-11T22:37:32.962Z,3.98
2023-01-11T22:40:07.718Z,3.99
2023-01-11T22:42:40.967Z,4.03
2023-01-11T22:45:21.626Z,4.04
2023-01-11T22:47:56.719Z,4.00
2023-01-11T22:50:32.682Z,4.00
2023-01-11T22:53:03.398Z,4.04
2023-01-11T22:55:36.816Z,4.04
2023-01-11T22:58:11.495Z,4.04
2023-01-11T23:00:43.456Z,4.07
2023-01-11T23:03:16.698Z,4.12
2023-01-11T23:06:01.005Z,4.14
2023-01-11T23:08:30.165Z,4.17
2023-01-11T23:11:01.910Z,4.18
2023-01-11T23:13:49.789Z,4.19
2023-01-11T23:16:20.843Z,4.19
2023-01-11T23:18:50.056Z,4.19
2023-01-11T23:21:22.010Z,4.15
2023-01-11T23:23:54.155Z,4.18
2023-01-11T23:26:23.975Z,4.17
2023-01-11T23:28:57.371Z,4.19
2023-01-11T23:31:30.768Z,4.19
2023-01-11T23:34:18.668Z,4.20
2023-01-11T23:36:52.733Z,4.23
2023-01-11T23:39:30.865Z,4.26
2023-01-11T23:42:20.575Z,4.26
2023-01-11T23:44:51.276Z,4.27
2023-01-11T23:47:23.951Z,4.27
2023-01-11T23:49:57.796Z,4.25
2023-01-11T23:52:30.617Z,4.25
2023-01-11T23:55:02.567Z,4.27
2023-01-11T23:57:31.603Z,4.33
